Main page
METAR-TAF:

METAR-TAF

Airports :

Bahawalpur, Pakistan

Bahawalpur Airport

latitude: 29-20-53N, longitude: 71-43-04E, elevation: 119 m

METAR: missing

Time: 04:18 (23:18 UTC)

Forecast

The report was made 7 hours and 6 minutes ago, at 16:12 UTC
Forecast valid from 23 at 18 UTC to 24 at 12 UTC
Wind 10 kt from the Northeast
Visibility: 4000 m
Few clouds at a height of 4000 ft
Scattered clouds at a height of 12000 ft
smoke
Probability 30% :
Temporary
from 23 at 18 UTC to 23 at 22 UTC
Wind 20 kt from the North
Visibility: 2000 m
Few clouds at a height of 3000 ft, Cumulonimbus.
Scattered clouds at a height of 4000 ft
Broken clouds at a height of 10000 ft
thunderstorm, rain

TAF: OPBW 231612Z 2318/2412 05010KT 4000 FU FEW040 SCT120 TN29/2401Z TX39/2410Z PROB30 TEMPO 2318/2322 36020KT 2000 TSRA FEW030CB SCT040 BKN100

Weather observations and forecasts of more than 4000 airports (METAR and TAF reports).

The available stations are represented by yellow and red dots on the map.

Hover mouse over dot to see the name of the station.

Then click to see weather observations and forecasts.

To change the map : click on the green buttons with a black cross to zoom in, on the green button with a dash to zoom out, or on the green arrows for adjacent maps.


METAR-TAF: